sensor_id;sensor_type;location;lat;lon;timestamp;P1;durP1;ratioP1;P2;durP2;ratioP2
47659;SDS011;33403;43.608;1.458;2022-12-29T00:01:35;32.17;;;17.35;;
47659;SDS011;33403;43.608;1.458;2022-12-29T00:04:02;33.25;;;17.30;;
47659;SDS011;33403;43.608;1.458;2022-12-29T00:06:28;29.75;;;16.58;;
47659;SDS011;33403;43.608;1.458;2022-12-29T00:08:54;28.50;;;16.67;;
47659;SDS011;33403;43.608;1.458;2022-12-29T00:11:21;33.00;;;17.15;;
47659;SDS011;33403;43.608;1.458;2022-12-29T00:13:47;27.33;;;16.33;;
47659;SDS011;33403;43.608;1.458;2022-12-29T00:16:32;25.33;;;15.98;;
47659;SDS011;33403;43.608;1.458;2022-12-29T00:18:58;24.30;;;15.40;;
47659;SDS011;33403;43.608;1.458;2022-12-29T00:21:25;26.73;;;15.27;;
47659;SDS011;33403;43.608;1.458;2022-12-29T00:24:17;28.55;;;16.13;;
47659;SDS011;33403;43.608;1.458;2022-12-29T00:26:47;24.45;;;15.20;;
47659;SDS011;33403;43.608;1.458;2022-12-29T00:29:32;25.55;;;15.32;;
47659;SDS011;33403;43.608;1.458;2022-12-29T00:32:17;27.20;;;15.15;;
47659;SDS011;33403;43.608;1.458;2022-12-29T00:35:03;26.23;;;14.90;;
47659;SDS011;33403;43.608;1.458;2022-12-29T00:37:40;25.58;;;15.60;;
47659;SDS011;33403;43.608;1.458;2022-12-29T00:40:25;24.48;;;15.05;;
47659;SDS011;33403;43.608;1.458;2022-12-29T00:43:10;24.38;;;14.52;;
47659;SDS011;33403;43.608;1.458;2022-12-29T00:45:54;22.95;;;14.15;;
47659;SDS011;33403;43.608;1.458;2022-12-29T00:48:21;24.40;;;14.60;;
47659;SDS011;33403;43.608;1.458;2022-12-29T00:51:07;25.02;;;14.63;;
47659;SDS011;33403;43.608;1.458;2022-12-29T00:53:33;21.27;;;13.70;;
47659;SDS011;33403;43.608;1.458;2022-12-29T00:55:59;23.38;;;14.50;;
47659;SDS011;33403;43.608;1.458;2022-12-29T00:58:29;25.88;;;14.65;;
47659;SDS011;33403;43.608;1.458;2022-12-29T01:01:05;23.70;;;14.00;;
47659;SDS011;33403;43.608;1.458;2022-12-29T01:03:31;26.27;;;14.25;;
47659;SDS011;33403;43.608;1.458;2022-12-29T01:06:06;26.25;;;14.20;;
47659;SDS011;33403;43.608;1.458;2022-12-29T01:08:32;22.95;;;13.88;;
47659;SDS011;33403;43.608;1.458;2022-12-29T01:10:59;24.38;;;14.02;;
47659;SDS011;33403;43.608;1.458;2022-12-29T01:13:25;21.95;;;13.60;;
47659;SDS011;33403;43.608;1.458;2022-12-29T01:15:51;21.80;;;13.25;;
47659;SDS011;33403;43.608;1.458;2022-12-29T01:18:18;22.67;;;13.52;;
47659;SDS011;33403;43.608;1.458;2022-12-29T01:20:44;21.67;;;13.57;;
47659;SDS011;33403;43.608;1.458;2022-12-29T01:23:10;20.40;;;13.18;;
47659;SDS011;33403;43.608;1.458;2022-12-29T01:25:36;23.95;;;13.95;;
47659;SDS011;33403;43.608;1.458;2022-12-29T01:28:02;26.08;;;14.93;;
47659;SDS011;33403;43.608;1.458;2022-12-29T01:30:28;24.10;;;13.98;;
47659;SDS011;33403;43.608;1.458;2022-12-29T01:32:54;24.30;;;13.95;;
47659;SDS011;33403;43.608;1.458;2022-12-29T01:35:20;21.85;;;13.35;;
47659;SDS011;33403;43.608;1.458;2022-12-29T01:37:46;20.92;;;13.10;;
47659;SDS011;33403;43.608;1.458;2022-12-29T01:40:12;23.63;;;13.68;;
47659;SDS011;33403;43.608;1.458;2022-12-29T01:42:38;19.25;;;12.32;;
47659;SDS011;33403;43.608;1.458;2022-12-29T01:45:14;21.77;;;12.88;;
47659;SDS011;33403;43.608;1.458;2022-12-29T01:50:26;20.02;;;11.90;;
47659;SDS011;33403;43.608;1.458;2022-12-29T01:53:00;22.52;;;13.35;;
47659;SDS011;33403;43.608;1.458;2022-12-29T01:55:28;22.05;;;12.43;;
47659;SDS011;33403;43.608;1.458;2022-12-29T01:57:55;23.13;;;13.02;;
47659;SDS011;33403;43.608;1.458;2022-12-29T02:00:22;19.45;;;12.13;;
47659;SDS011;33403;43.608;1.458;2022-12-29T02:02:50;20.50;;;11.95;;
47659;SDS011;33403;43.608;1.458;2022-12-29T02:05:40;22.88;;;13.20;;
47659;SDS011;33403;43.608;1.458;2022-12-29T02:08:03;22.02;;;13.05;;
47659;SDS011;33403;43.608;1.458;2022-12-29T02:10:30;20.55;;;12.32;;
47659;SDS011;33403;43.608;1.458;2022-12-29T02:12:57;22.35;;;13.30;;
47659;SDS011;33403;43.608;1.458;2022-12-29T02:16:09;20.60;;;11.85;;
47659;SDS011;33403;43.608;1.458;2022-12-29T02:38:20;26.95;;;12.98;;
47659;SDS011;33403;43.608;1.458;2022-12-29T02:40:50;23.08;;;12.63;;
47659;SDS011;33403;43.608;1.458;2022-12-29T02:43:38;25.30;;;13.20;;
47659;SDS011;33403;43.608;1.458;2022-12-29T02:46:27;26.08;;;13.85;;
47659;SDS011;33403;43.608;1.458;2022-12-29T02:49:15;27.00;;;13.52;;
47659;SDS011;33403;43.608;1.458;2022-12-29T02:52:14;24.30;;;13.23;;
47659;SDS011;33403;43.608;1.458;2022-12-29T02:54:31;22.92;;;12.80;;
47659;SDS011;33403;43.608;1.458;2022-12-29T02:59:50;24.63;;;13.00;;
47659;SDS011;33403;43.608;1.458;2022-12-29T03:03:00;23.80;;;12.52;;
47659;SDS011;33403;43.608;1.458;2022-12-29T03:05:22;27.63;;;13.45;;
47659;SDS011;33403;43.608;1.458;2022-12-29T03:18:44;22.83;;;12.90;;
47659;SDS011;33403;43.608;1.458;2022-12-29T03:23:44;24.25;;;14.00;;
47659;SDS011;33403;43.608;1.458;2022-12-29T03:26:12;22.83;;;13.63;;
47659;SDS011;33403;43.608;1.458;2022-12-29T03:28:45;23.70;;;13.50;;
47659;SDS011;33403;43.608;1.458;2022-12-29T03:31:12;25.13;;;13.30;;
47659;SDS011;33403;43.608;1.458;2022-12-29T03:33:39;23.63;;;13.20;;
47659;SDS011;33403;43.608;1.458;2022-12-29T03:36:08;26.38;;;13.65;;
47659;SDS011;33403;43.608;1.458;2022-12-29T03:38:37;25.48;;;13.55;;
47659;SDS011;33403;43.608;1.458;2022-12-29T03:41:07;22.88;;;13.32;;
47659;SDS011;33403;43.608;1.458;2022-12-29T03:43:34;21.90;;;13.55;;
47659;SDS011;33403;43.608;1.458;2022-12-29T03:46:00;25.73;;;13.63;;
47659;SDS011;33403;43.608;1.458;2022-12-29T03:48:26;27.48;;;13.45;;
47659;SDS011;33403;43.608;1.458;2022-12-29T03:50:52;23.30;;;12.77;;
47659;SDS011;33403;43.608;1.458;2022-12-29T03:53:18;25.85;;;13.57;;
47659;SDS011;33403;43.608;1.458;2022-12-29T03:55:44;21.17;;;12.48;;
47659;SDS011;33403;43.608;1.458;2022-12-29T03:58:11;24.23;;;13.13;;
47659;SDS011;33403;43.608;1.458;2022-12-29T04:00:37;22.88;;;12.93;;
47659;SDS011;33403;43.608;1.458;2022-12-29T04:03:03;22.85;;;12.57;;
47659;SDS011;33403;43.608;1.458;2022-12-29T04:05:29;23.55;;;13.07;;
47659;SDS011;33403;43.608;1.458;2022-12-29T04:07:56;23.48;;;13.15;;
47659;SDS011;33403;43.608;1.458;2022-12-29T04:10:22;20.80;;;12.32;;
47659;SDS011;33403;43.608;1.458;2022-12-29T04:12:48;25.25;;;12.07;;
47659;SDS011;33403;43.608;1.458;2022-12-29T04:15:14;21.85;;;11.63;;
47659;SDS011;33403;43.608;1.458;2022-12-29T04:17:40;22.05;;;12.13;;
47659;SDS011;33403;43.608;1.458;2022-12-29T04:20:06;22.85;;;12.50;;
47659;SDS011;33403;43.608;1.458;2022-12-29T04:23:01;20.48;;;11.70;;
47659;SDS011;33403;43.608;1.458;2022-12-29T04:25:27;24.65;;;12.38;;
47659;SDS011;33403;43.608;1.458;2022-12-29T04:27:53;21.83;;;11.75;;
47659;SDS011;33403;43.608;1.458;2022-12-29T04:30:19;23.08;;;11.93;;
47659;SDS011;33403;43.608;1.458;2022-12-29T04:32:45;22.50;;;12.15;;
47659;SDS011;33403;43.608;1.458;2022-12-29T04:35:11;19.80;;;11.40;;
47659;SDS011;33403;43.608;1.458;2022-12-29T04:37:37;20.98;;;11.52;;
47659;SDS011;33403;43.608;1.458;2022-12-29T04:40:03;20.77;;;11.77;;
47659;SDS011;33403;43.608;1.458;2022-12-29T04:42:29;23.27;;;11.95;;
47659;SDS011;33403;43.608;1.458;2022-12-29T04:44:55;18.15;;;11.35;;
47659;SDS011;33403;43.608;1.458;2022-12-29T04:47:21;20.50;;;10.93;;
47659;SDS011;33403;43.608;1.458;2022-12-29T04:49:47;17.77;;;11.02;;
47659;SDS011;33403;43.608;1.458;2022-12-29T04:52:13;19.13;;;11.52;;
47659;SDS011;33403;43.608;1.458;2022-12-29T04:54:39;19.55;;;11.35;;
47659;SDS011;33403;43.608;1.458;2022-12-29T04:57:05;18.65;;;10.57;;
47659;SDS011;33403;43.608;1.458;2022-12-29T04:59:31;21.48;;;11.50;;
47659;SDS011;33403;43.608;1.458;2022-12-29T05:01:57;19.52;;;11.93;;
47659;SDS011;33403;43.608;1.458;2022-12-29T05:04:23;21.15;;;11.90;;
47659;SDS011;33403;43.608;1.458;2022-12-29T05:06:50;18.27;;;11.80;;
47659;SDS011;33403;43.608;1.458;2022-12-29T05:09:16;24.05;;;11.07;;
47659;SDS011;33403;43.608;1.458;2022-12-29T05:11:42;21.75;;;11.88;;
47659;SDS011;33403;43.608;1.458;2022-12-29T05:14:08;19.90;;;11.07;;
47659;SDS011;33403;43.608;1.458;2022-12-29T05:16:34;22.08;;;11.63;;
47659;SDS011;33403;43.608;1.458;2022-12-29T05:19:00;19.42;;;11.50;;
47659;SDS011;33403;43.608;1.458;2022-12-29T05:21:26;19.88;;;11.38;;
47659;SDS011;33403;43.608;1.458;2022-12-29T05:23:52;24.27;;;12.50;;
47659;SDS011;33403;43.608;1.458;2022-12-29T05:26:18;20.17;;;11.80;;
47659;SDS011;33403;43.608;1.458;2022-12-29T05:28:44;23.83;;;11.90;;
47659;SDS011;33403;43.608;1.458;2022-12-29T05:31:10;20.45;;;12.00;;
47659;SDS011;33403;43.608;1.458;2022-12-29T05:33:36;19.20;;;11.75;;
47659;SDS011;33403;43.608;1.458;2022-12-29T05:36:05;18.77;;;12.85;;
47659;SDS011;33403;43.608;1.458;2022-12-29T05:38:31;21.40;;;12.45;;
47659;SDS011;33403;43.608;1.458;2022-12-29T05:40:57;21.40;;;11.65;;
47659;SDS011;33403;43.608;1.458;2022-12-29T05:43:23;20.20;;;11.95;;
47659;SDS011;33403;43.608;1.458;2022-12-29T05:45:49;25.63;;;12.77;;
47659;SDS011;33403;43.608;1.458;2022-12-29T05:48:16;23.83;;;12.32;;
47659;SDS011;33403;43.608;1.458;2022-12-29T05:50:42;24.10;;;12.73;;
47659;SDS011;33403;43.608;1.458;2022-12-29T05:53:08;22.52;;;12.20;;
47659;SDS011;33403;43.608;1.458;2022-12-29T05:55:34;26.88;;;12.50;;
47659;SDS011;33403;43.608;1.458;2022-12-29T05:58:00;24.90;;;13.15;;
47659;SDS011;33403;43.608;1.458;2022-12-29T06:00:26;25.13;;;12.82;;
47659;SDS011;33403;43.608;1.458;2022-12-29T06:02:52;22.45;;;12.93;;
47659;SDS011;33403;43.608;1.458;2022-12-29T06:05:18;25.63;;;12.88;;
47659;SDS011;33403;43.608;1.458;2022-12-29T06:07:44;21.75;;;12.77;;
47659;SDS011;33403;43.608;1.458;2022-12-29T06:10:10;24.70;;;13.13;;
47659;SDS011;33403;43.608;1.458;2022-12-29T06:12:36;24.23;;;12.98;;
47659;SDS011;33403;43.608;1.458;2022-12-29T06:15:02;25.65;;;12.82;;
47659;SDS011;33403;43.608;1.458;2022-12-29T06:17:28;24.13;;;12.25;;
47659;SDS011;33403;43.608;1.458;2022-12-29T06:19:55;24.15;;;12.95;;
47659;SDS011;33403;43.608;1.458;2022-12-29T06:22:21;24.08;;;12.52;;
47659;SDS011;33403;43.608;1.458;2022-12-29T06:24:47;26.30;;;13.32;;
47659;SDS011;33403;43.608;1.458;2022-12-29T06:27:13;23.92;;;12.77;;
47659;SDS011;33403;43.608;1.458;2022-12-29T06:29:39;26.52;;;13.18;;
47659;SDS011;33403;43.608;1.458;2022-12-29T06:32:05;23.15;;;12.45;;
47659;SDS011;33403;43.608;1.458;2022-12-29T06:34:32;23.95;;;13.13;;
47659;SDS011;33403;43.608;1.458;2022-12-29T06:36:58;25.23;;;13.25;;
47659;SDS011;33403;43.608;1.458;2022-12-29T06:39:24;22.10;;;12.77;;
47659;SDS011;33403;43.608;1.458;2022-12-29T06:41:53;24.48;;;12.65;;
47659;SDS011;33403;43.608;1.458;2022-12-29T06:44:20;21.95;;;12.38;;
47659;SDS011;33403;43.608;1.458;2022-12-29T06:46:46;25.25;;;13.68;;
47659;SDS011;33403;43.608;1.458;2022-12-29T06:49:12;27.23;;;13.80;;
47659;SDS011;33403;43.608;1.458;2022-12-29T06:51:38;25.35;;;13.57;;
47659;SDS011;33403;43.608;1.458;2022-12-29T06:54:04;24.30;;;12.70;;
47659;SDS011;33403;43.608;1.458;2022-12-29T06:56:30;25.13;;;13.50;;
47659;SDS011;33403;43.608;1.458;2022-12-29T06:58:57;23.52;;;13.50;;
47659;SDS011;33403;43.608;1.458;2022-12-29T07:01:25;26.40;;;13.07;;
47659;SDS011;33403;43.608;1.458;2022-12-29T07:03:51;24.35;;;13.15;;
47659;SDS011;33403;43.608;1.458;2022-12-29T07:06:17;24.60;;;13.00;;
47659;SDS011;33403;43.608;1.458;2022-12-29T07:08:43;25.55;;;13.20;;
47659;SDS011;33403;43.608;1.458;2022-12-29T07:11:09;23.25;;;13.43;;
47659;SDS011;33403;43.608;1.458;2022-12-29T07:13:36;28.33;;;13.85;;
47659;SDS011;33403;43.608;1.458;2022-12-29T07:16:08;24.98;;;13.40;;
47659;SDS011;33403;43.608;1.458;2022-12-29T07:18:34;26.42;;;13.15;;
47659;SDS011;33403;43.608;1.458;2022-12-29T07:21:00;24.80;;;13.27;;
47659;SDS011;33403;43.608;1.458;2022-12-29T07:23:27;28.75;;;13.18;;
47659;SDS011;33403;43.608;1.458;2022-12-29T07:26:03;26.70;;;14.07;;
47659;SDS011;33403;43.608;1.458;2022-12-29T07:28:30;26.48;;;13.57;;
47659;SDS011;33403;43.608;1.458;2022-12-29T07:30:57;26.48;;;14.13;;
47659;SDS011;33403;43.608;1.458;2022-12-29T07:33:23;28.98;;;13.88;;
47659;SDS011;33403;43.608;1.458;2022-12-29T07:35:49;29.50;;;13.60;;
47659;SDS011;33403;43.608;1.458;2022-12-29T07:38:15;24.67;;;13.55;;
47659;SDS011;33403;43.608;1.458;2022-12-29T07:40:42;26.83;;;13.68;;
47659;SDS011;33403;43.608;1.458;2022-12-29T07:43:08;26.45;;;14.20;;
47659;SDS011;33403;43.608;1.458;2022-12-29T07:45:34;26.92;;;13.07;;
47659;SDS011;33403;43.608;1.458;2022-12-29T07:48:00;25.80;;;13.68;;
47659;SDS011;33403;43.608;1.458;2022-12-29T07:50:27;24.38;;;12.77;;
47659;SDS011;33403;43.608;1.458;2022-12-29T07:52:53;27.88;;;13.57;;
47659;SDS011;33403;43.608;1.458;2022-12-29T07:55:19;27.77;;;13.13;;
47659;SDS011;33403;43.608;1.458;2022-12-29T07:57:45;22.90;;;12.88;;
47659;SDS011;33403;43.608;1.458;2022-12-29T08:00:11;25.92;;;13.45;;
47659;SDS011;33403;43.608;1.458;2022-12-29T08:02:38;24.45;;;12.88;;
47659;SDS011;33403;43.608;1.458;2022-12-29T08:05:04;25.92;;;12.75;;
47659;SDS011;33403;43.608;1.458;2022-12-29T08:07:30;25.65;;;13.18;;
47659;SDS011;33403;43.608;1.458;2022-12-29T08:09:56;27.35;;;14.02;;
47659;SDS011;33403;43.608;1.458;2022-12-29T08:12:22;28.55;;;13.18;;
47659;SDS011;33403;43.608;1.458;2022-12-29T08:14:48;28.77;;;13.02;;
47659;SDS011;33403;43.608;1.458;2022-12-29T08:17:14;28.02;;;12.55;;
47659;SDS011;33403;43.608;1.458;2022-12-29T08:19:40;28.17;;;13.48;;
47659;SDS011;33403;43.608;1.458;2022-12-29T08:22:07;23.92;;;12.82;;
47659;SDS011;33403;43.608;1.458;2022-12-29T08:24:33;28.27;;;13.30;;
47659;SDS011;33403;43.608;1.458;2022-12-29T08:26:59;23.13;;;13.20;;
47659;SDS011;33403;43.608;1.458;2022-12-29T08:29:25;28.17;;;13.07;;
47659;SDS011;33403;43.608;1.458;2022-12-29T08:31:53;24.30;;;12.32;;
47659;SDS011;33403;43.608;1.458;2022-12-29T08:34:18;41.97;;;14.35;;
47659;SDS011;33403;43.608;1.458;2022-12-29T08:36:44;36.55;;;14.90;;
47659;SDS011;33403;43.608;1.458;2022-12-29T08:39:10;22.25;;;12.50;;
47659;SDS011;33403;43.608;1.458;2022-12-29T08:41:37;22.52;;;11.05;;
47659;SDS011;33403;43.608;1.458;2022-12-29T08:44:03;22.08;;;12.10;;
47659;SDS011;33403;43.608;1.458;2022-12-29T08:46:29;22.75;;;11.82;;
47659;SDS011;33403;43.608;1.458;2022-12-29T08:48:55;28.55;;;12.13;;
47659;SDS011;33403;43.608;1.458;2022-12-29T08:51:21;24.98;;;12.18;;
47659;SDS011;33403;43.608;1.458;2022-12-29T08:53:47;23.55;;;11.75;;
47659;SDS011;33403;43.608;1.458;2022-12-29T08:56:13;27.88;;;11.80;;
47659;SDS011;33403;43.608;1.458;2022-12-29T08:58:39;24.83;;;12.32;;
47659;SDS011;33403;43.608;1.458;2022-12-29T09:01:06;27.98;;;12.15;;
47659;SDS011;33403;43.608;1.458;2022-12-29T09:03:32;24.73;;;12.30;;
47659;SDS011;33403;43.608;1.458;2022-12-29T09:05:58;25.73;;;12.05;;
47659;SDS011;33403;43.608;1.458;2022-12-29T09:08:24;27.73;;;12.75;;
47659;SDS011;33403;43.608;1.458;2022-12-29T09:10:50;26.40;;;11.88;;
47659;SDS011;33403;43.608;1.458;2022-12-29T09:13:17;30.52;;;13.10;;
47659;SDS011;33403;43.608;1.458;2022-12-29T09:15:43;26.05;;;12.45;;
47659;SDS011;33403;43.608;1.458;2022-12-29T09:18:09;24.60;;;12.30;;
47659;SDS011;33403;43.608;1.458;2022-12-29T09:20:36;28.38;;;14.15;;
47659;SDS011;33403;43.608;1.458;2022-12-29T09:23:02;23.75;;;12.55;;
47659;SDS011;33403;43.608;1.458;2022-12-29T09:25:28;24.00;;;12.55;;
47659;SDS011;33403;43.608;1.458;2022-12-29T09:27:54;20.58;;;11.77;;
47659;SDS011;33403;43.608;1.458;2022-12-29T09:30:21;23.35;;;11.77;;
47659;SDS011;33403;43.608;1.458;2022-12-29T09:32:47;24.17;;;12.35;;
47659;SDS011;33403;43.608;1.458;2022-12-29T09:35:14;23.15;;;11.93;;
47659;SDS011;33403;43.608;1.458;2022-12-29T09:37:41;25.30;;;11.07;;
47659;SDS011;33403;43.608;1.458;2022-12-29T09:40:09;23.75;;;11.07;;
47659;SDS011;33403;43.608;1.458;2022-12-29T09:42:43;20.95;;;11.07;;
47659;SDS011;33403;43.608;1.458;2022-12-29T09:45:14;26.60;;;12.35;;
47659;SDS011;33403;43.608;1.458;2022-12-29T09:47:41;23.92;;;11.10;;
47659;SDS011;33403;43.608;1.458;2022-12-29T09:50:20;19.85;;;10.38;;
47659;SDS011;33403;43.608;1.458;2022-12-29T09:52:49;23.60;;;10.82;;
47659;SDS011;33403;43.608;1.458;2022-12-29T09:55:17;23.27;;;11.13;;
47659;SDS011;33403;43.608;1.458;2022-12-29T09:58:02;17.48;;;10.32;;
47659;SDS011;33403;43.608;1.458;2022-12-29T10:03:16;21.73;;;11.05;;
47659;SDS011;33403;43.608;1.458;2022-12-29T10:10:42;21.90;;;10.90;;
47659;SDS011;33403;43.608;1.458;2022-12-29T10:20:52;21.13;;;10.40;;
47659;SDS011;33403;43.608;1.458;2022-12-29T10:25:46;20.02;;;9.30;;
47659;SDS011;33403;43.608;1.458;2022-12-29T10:28:23;20.95;;;10.38;;
47659;SDS011;33403;43.608;1.458;2022-12-29T10:30:49;19.38;;;10.75;;
47659;SDS011;33403;43.608;1.458;2022-12-29T10:33:21;17.85;;;9.82;;
47659;SDS011;33403;43.608;1.458;2022-12-29T10:35:48;17.70;;;10.27;;
47659;SDS011;33403;43.608;1.458;2022-12-29T10:38:21;20.05;;;9.98;;
47659;SDS011;33403;43.608;1.458;2022-12-29T10:40:50;24.10;;;9.43;;
47659;SDS011;33403;43.608;1.458;2022-12-29T10:45:43;24.80;;;10.10;;
47659;SDS011;33403;43.608;1.458;2022-12-29T10:48:11;20.60;;;10.68;;
47659;SDS011;33403;43.608;1.458;2022-12-29T10:50:41;18.10;;;9.23;;
47659;SDS011;33403;43.608;1.458;2022-12-29T10:53:07;16.88;;;9.32;;
47659;SDS011;33403;43.608;1.458;2022-12-29T10:55:38;14.70;;;8.93;;
47659;SDS011;33403;43.608;1.458;2022-12-29T10:58:10;18.77;;;9.27;;
47659;SDS011;33403;43.608;1.458;2022-12-29T11:00:38;14.70;;;8.23;;
47659;SDS011;33403;43.608;1.458;2022-12-29T11:05:49;17.98;;;8.93;;
47659;SDS011;33403;43.608;1.458;2022-12-29T11:08:20;20.95;;;8.50;;
47659;SDS011;33403;43.608;1.458;2022-12-29T11:10:48;14.23;;;8.77;;
47659;SDS011;33403;43.608;1.458;2022-12-29T11:13:25;16.02;;;9.38;;
47659;SDS011;33403;43.608;1.458;2022-12-29T11:15:51;14.63;;;8.50;;
47659;SDS011;33403;43.608;1.458;2022-12-29T11:18:24;14.13;;;8.27;;
47659;SDS011;33403;43.608;1.458;2022-12-29T11:20:54;20.38;;;8.82;;
47659;SDS011;33403;43.608;1.458;2022-12-29T11:23:31;14.65;;;8.93;;
47659;SDS011;33403;43.608;1.458;2022-12-29T11:28:36;16.65;;;8.15;;
47659;SDS011;33403;43.608;1.458;2022-12-29T11:31:03;16.77;;;8.93;;
47659;SDS011;33403;43.608;1.458;2022-12-29T11:33:30;15.35;;;8.57;;
47659;SDS011;33403;43.608;1.458;2022-12-29T11:35:57;21.02;;;9.65;;
47659;SDS011;33403;43.608;1.458;2022-12-29T11:38:25;19.80;;;8.27;;
47659;SDS011;33403;43.608;1.458;2022-12-29T11:40:52;16.63;;;8.18;;
47659;SDS011;33403;43.608;1.458;2022-12-29T11:43:22;13.07;;;7.43;;
47659;SDS011;33403;43.608;1.458;2022-12-29T11:45:51;18.05;;;7.93;;
47659;SDS011;33403;43.608;1.458;2022-12-29T11:48:19;16.55;;;7.40;;
47659;SDS011;33403;43.608;1.458;2022-12-29T11:50:52;12.05;;;6.97;;
47659;SDS011;33403;43.608;1.458;2022-12-29T11:53:23;12.57;;;7.03;;
47659;SDS011;33403;43.608;1.458;2022-12-29T11:55:59;15.27;;;7.80;;
47659;SDS011;33403;43.608;1.458;2022-12-29T11:58:36;15.93;;;7.82;;
47659;SDS011;33403;43.608;1.458;2022-12-29T12:06:26;14.77;;;7.28;;
47659;SDS011;33403;43.608;1.458;2022-12-29T12:08:54;15.48;;;7.38;;
47659;SDS011;33403;43.608;1.458;2022-12-29T12:14:01;13.80;;;7.40;;
47659;SDS011;33403;43.608;1.458;2022-12-29T12:16:31;18.92;;;7.22;;
47659;SDS011;33403;43.608;1.458;2022-12-29T12:21:46;12.23;;;6.82;;
47659;SDS011;33403;43.608;1.458;2022-12-29T12:29:20;15.85;;;7.22;;
47659;SDS011;33403;43.608;1.458;2022-12-29T12:31:59;14.82;;;7.40;;
47659;SDS011;33403;43.608;1.458;2022-12-29T12:50:49;13.73;;;7.18;;
47659;SDS011;33403;43.608;1.458;2022-12-29T13:01:11;15.63;;;7.45;;
47659;SDS011;33403;43.608;1.458;2022-12-29T13:06:12;12.00;;;7.63;;
47659;SDS011;33403;43.608;1.458;2022-12-29T13:13:59;12.23;;;7.00;;
47659;SDS011;33403;43.608;1.458;2022-12-29T13:26:54;14.75;;;7.40;;
47659;SDS011;33403;43.608;1.458;2022-12-29T13:34:17;14.70;;;7.63;;
47659;SDS011;33403;43.608;1.458;2022-12-29T13:36:48;14.35;;;6.50;;
47659;SDS011;33403;43.608;1.458;2022-12-29T13:39:25;18.45;;;7.93;;
47659;SDS011;33403;43.608;1.458;2022-12-29T13:41:54;14.32;;;6.72;;
47659;SDS011;33403;43.608;1.458;2022-12-29T13:44:25;11.70;;;6.82;;
47659;SDS011;33403;43.608;1.458;2022-12-29T13:46:53;14.93;;;6.60;;
47659;SDS011;33403;43.608;1.458;2022-12-29T13:49:20;13.13;;;6.90;;
47659;SDS011;33403;43.608;1.458;2022-12-29T13:51:50;15.55;;;7.15;;
47659;SDS011;33403;43.608;1.458;2022-12-29T13:56:51;11.65;;;6.78;;
47659;SDS011;33403;43.608;1.458;2022-12-29T14:04:23;12.88;;;7.40;;
47659;SDS011;33403;43.608;1.458;2022-12-29T14:07:23;14.15;;;7.28;;
47659;SDS011;33403;43.608;1.458;2022-12-29T14:09:48;14.60;;;7.28;;
47659;SDS011;33403;43.608;1.458;2022-12-29T14:14:45;14.98;;;8.50;;
47659;SDS011;33403;43.608;1.458;2022-12-29T14:17:11;12.07;;;6.70;;
47659;SDS011;33403;43.608;1.458;2022-12-29T14:19:41;13.60;;;7.50;;
47659;SDS011;33403;43.608;1.458;2022-12-29T14:22:09;12.38;;;7.65;;
47659;SDS011;33403;43.608;1.458;2022-12-29T14:24:43;13.48;;;7.13;;
47659;SDS011;33403;43.608;1.458;2022-12-29T14:34:51;11.07;;;6.90;;
47659;SDS011;33403;43.608;1.458;2022-12-29T14:37:30;12.15;;;7.30;;
47659;SDS011;33403;43.608;1.458;2022-12-29T14:42:29;16.15;;;8.43;;
47659;SDS011;33403;43.608;1.458;2022-12-29T14:45:02;13.50;;;7.32;;
47659;SDS011;33403;43.608;1.458;2022-12-29T14:47:34;14.48;;;8.05;;
47659;SDS011;33403;43.608;1.458;2022-12-29T14:52:30;16.63;;;7.75;;
47659;SDS011;33403;43.608;1.458;2022-12-29T14:54:58;15.52;;;7.38;;
47659;SDS011;33403;43.608;1.458;2022-12-29T14:57:29;13.52;;;7.38;;
47659;SDS011;33403;43.608;1.458;2022-12-29T14:59:58;16.65;;;8.57;;
47659;SDS011;33403;43.608;1.458;2022-12-29T15:02:26;14.05;;;8.50;;
47659;SDS011;33403;43.608;1.458;2022-12-29T15:04:59;13.10;;;8.27;;
47659;SDS011;33403;43.608;1.458;2022-12-29T15:07:26;17.15;;;8.43;;
47659;SDS011;33403;43.608;1.458;2022-12-29T15:10:13;19.50;;;9.70;;
47659;SDS011;33403;43.608;1.458;2022-12-29T15:12:44;15.57;;;9.63;;
47659;SDS011;33403;43.608;1.458;2022-12-29T15:15:22;20.48;;;10.30;;
47659;SDS011;33403;43.608;1.458;2022-12-29T15:17:48;16.67;;;9.38;;
47659;SDS011;33403;43.608;1.458;2022-12-29T15:22:54;15.50;;;8.27;;
47659;SDS011;33403;43.608;1.458;2022-12-29T15:25:21;14.00;;;8.70;;
47659;SDS011;33403;43.608;1.458;2022-12-29T15:27:51;16.73;;;8.63;;
47659;SDS011;33403;43.608;1.458;2022-12-29T15:30:18;17.88;;;8.82;;
47659;SDS011;33403;43.608;1.458;2022-12-29T15:32:44;19.73;;;9.40;;
47659;SDS011;33403;43.608;1.458;2022-12-29T15:37:52;16.38;;;8.60;;
47659;SDS011;33403;43.608;1.458;2022-12-29T15:40:36;16.83;;;9.07;;
47659;SDS011;33403;43.608;1.458;2022-12-29T15:45:30;18.77;;;9.15;;
47659;SDS011;33403;43.608;1.458;2022-12-29T15:47:57;18.58;;;9.25;;
47659;SDS011;33403;43.608;1.458;2022-12-29T15:50:28;16.25;;;8.93;;
47659;SDS011;33403;43.608;1.458;2022-12-29T15:52:55;17.25;;;9.82;;
47659;SDS011;33403;43.608;1.458;2022-12-29T15:57:47;14.57;;;9.25;;
47659;SDS011;33403;43.608;1.458;2022-12-29T16:00:47;13.60;;;8.70;;
47659;SDS011;33403;43.608;1.458;2022-12-29T16:03:06;19.02;;;9.40;;
47659;SDS011;33403;43.608;1.458;2022-12-29T16:05:37;17.17;;;8.88;;
47659;SDS011;33403;43.608;1.458;2022-12-29T16:08:20;12.82;;;8.98;;
47659;SDS011;33403;43.608;1.458;2022-12-29T16:10:47;15.15;;;9.48;;
47659;SDS011;33403;43.608;1.458;2022-12-29T16:15:46;16.50;;;10.10;;
47659;SDS011;33403;43.608;1.458;2022-12-29T16:18:21;21.92;;;11.35;;
47659;SDS011;33403;43.608;1.458;2022-12-29T16:20:49;19.50;;;11.68;;
47659;SDS011;33403;43.608;1.458;2022-12-29T16:23:23;19.38;;;11.27;;
47659;SDS011;33403;43.608;1.458;2022-12-29T16:25:49;19.95;;;12.18;;
47659;SDS011;33403;43.608;1.458;2022-12-29T16:28:20;24.77;;;12.82;;
47659;SDS011;33403;43.608;1.458;2022-12-29T16:30:46;21.92;;;12.05;;
47659;SDS011;33403;43.608;1.458;2022-12-29T16:33:28;24.83;;;13.38;;
47659;SDS011;33403;43.608;1.458;2022-12-29T16:35:55;22.02;;;13.90;;
47659;SDS011;33403;43.608;1.458;2022-12-29T16:38:30;22.80;;;14.35;;
47659;SDS011;33403;43.608;1.458;2022-12-29T16:40:57;24.75;;;14.77;;
47659;SDS011;33403;43.608;1.458;2022-12-29T16:43:27;39.97;;;23.08;;
47659;SDS011;33403;43.608;1.458;2022-12-29T16:48:34;67.65;;;39.70;;
47659;SDS011;33403;43.608;1.458;2022-12-29T16:51:02;46.97;;;29.83;;
47659;SDS011;33403;43.608;1.458;2022-12-29T16:53:34;67.05;;;43.20;;
47659;SDS011;33403;43.608;1.458;2022-12-29T16:56:03;37.97;;;21.80;;
47659;SDS011;33403;43.608;1.458;2022-12-29T16:58:29;30.38;;;19.48;;
47659;SDS011;33403;43.608;1.458;2022-12-29T17:00:59;27.65;;;17.05;;
47659;SDS011;33403;43.608;1.458;2022-12-29T17:03:29;27.00;;;16.75;;
47659;SDS011;33403;43.608;1.458;2022-12-29T17:05:56;58.75;;;35.45;;
47659;SDS011;33403;43.608;1.458;2022-12-29T17:08:22;49.53;;;30.98;;
47659;SDS011;33403;43.608;1.458;2022-12-29T17:10:52;47.58;;;29.15;;
47659;SDS011;33403;43.608;1.458;2022-12-29T17:13:37;36.95;;;21.15;;
47659;SDS011;33403;43.608;1.458;2022-12-29T17:16:04;30.95;;;17.80;;
47659;SDS011;33403;43.608;1.458;2022-12-29T17:18:32;29.95;;;17.40;;
47659;SDS011;33403;43.608;1.458;2022-12-29T17:20:58;25.70;;;16.58;;
47659;SDS011;33403;43.608;1.458;2022-12-29T17:23:24;18.95;;;10.10;;